createdAt,value
2018-02-03T00:00:56.274Z,0
2018-02-03T00:01:56.019Z,0
2018-02-03T00:02:55.754Z,0
2018-02-03T00:03:56.245Z,0
2018-02-03T00:04:56.239Z,0
2018-02-03T00:05:55.727Z,0
2018-02-03T00:06:56.484Z,0
2018-02-03T00:07:56.223Z,0
2018-02-03T00:08:56.206Z,0
2018-02-03T00:09:56.207Z,0
2018-02-03T00:10:55.956Z,0
2018-02-03T00:11:55.706Z,0
2018-02-03T00:12:55.920Z,0
2018-02-03T00:13:56.184Z,0
2018-02-03T00:14:56.153Z,0
2018-02-03T00:15:56.154Z,0
2018-02-03T00:16:55.894Z,0
2018-02-03T00:17:56.137Z,0
2018-02-03T00:18:56.371Z,0
2018-02-03T00:19:56.366Z,0
2018-02-03T00:20:56.108Z,0
2018-02-03T00:21:55.851Z,0
2018-02-03T00:22:55.853Z,0
2018-02-03T00:23:56.097Z,0
2018-02-03T00:24:56.322Z,0
2018-02-03T00:25:56.060Z,0
2018-02-03T00:26:55.860Z,0
2018-02-03T00:27:55.799Z,0
2018-02-03T00:28:56.290Z,0
2018-02-03T00:29:55.782Z,0
2018-02-03T00:30:56.034Z,0
2018-02-03T00:31:56.289Z,0
2018-02-03T00:32:55.751Z,0
2018-02-03T00:33:56.001Z,0
2018-02-03T00:34:55.984Z,0
2018-02-03T00:35:55.987Z,0
2018-02-03T00:36:56.039Z,0
2018-02-03T00:37:55.709Z,0
2018-02-03T00:38:56.206Z,0
2018-02-03T00:39:55.948Z,0
2018-02-03T00:40:55.943Z,0
2018-02-03T00:41:55.938Z,0
2018-02-03T00:42:56.174Z,0
2018-02-03T00:43:55.920Z,0
2018-02-03T00:44:55.911Z,0
2018-02-03T00:45:55.926Z,0
2018-02-03T00:46:55.906Z,0
2018-02-03T00:47:55.892Z,0
2018-02-03T00:48:55.640Z,0
2018-02-03T00:49:55.646Z,0
2018-02-03T00:50:55.871Z,0
2018-02-03T00:51:55.846Z,0
2018-02-03T00:52:55.840Z,0
2018-02-03T00:53:56.079Z,0
2018-02-03T00:54:55.566Z,0
2018-02-03T00:55:55.564Z,0
2018-02-03T00:56:55.574Z,0
2018-02-03T00:57:55.829Z,0
2018-02-03T00:58:56.054Z,0
2018-02-03T00:59:55.800Z,0
2018-02-03T01:00:56.034Z,0
2018-02-03T01:01:56.084Z,0
2018-02-03T01:02:55.504Z,0
2018-02-03T01:03:55.994Z,0
2018-02-03T01:04:55.233Z,0
2018-02-03T01:05:56.004Z,0
2018-02-03T01:06:55.991Z,0
2018-02-03T01:07:55.978Z,0
2018-02-03T01:08:55.706Z,0
2018-02-03T01:09:55.951Z,0
2018-02-03T01:10:55.512Z,0
2018-02-03T01:11:55.670Z,0
2018-02-03T01:12:55.415Z,0
2018-02-03T01:13:55.918Z,0
2018-02-03T01:14:55.398Z,0
2018-02-03T01:15:55.897Z,0
2018-02-03T01:16:55.639Z,0
2018-02-03T01:17:55.896Z,0
2018-02-03T01:18:55.621Z,0
2018-02-03T01:19:55.609Z,0
2018-02-03T01:20:55.862Z,0
2018-02-03T01:21:55.602Z,0
2018-02-03T01:22:55.598Z,0
2018-02-03T01:23:55.338Z,0
2018-02-03T01:24:55.570Z,0
2018-02-03T01:25:55.576Z,0
2018-02-03T01:26:55.794Z,0
2018-02-03T01:27:55.547Z,0
2018-02-03T01:28:55.277Z,0
2018-02-03T01:29:55.297Z,0
2018-02-03T01:30:55.516Z,0
2018-02-03T01:31:55.517Z,0
2018-02-03T01:32:55.491Z,0
2018-02-03T01:33:55.488Z,0
2018-02-03T01:34:55.737Z,0
2018-02-03T01:35:55.498Z,0
2018-02-03T01:36:55.220Z,0
2018-02-03T01:37:55.195Z,0
2018-02-03T01:38:55.689Z,0
2018-02-03T01:39:55.430Z,0
2018-02-03T01:40:55.680Z,0
2018-02-03T01:41:55.423Z,0
2018-02-03T01:42:55.430Z,0
2018-02-03T01:43:55.421Z,0
2018-02-03T01:44:55.641Z,0
2018-02-03T01:45:55.631Z,0
2018-02-03T01:46:55.618Z,0
2018-02-03T01:47:55.372Z,0
2018-02-03T01:48:55.366Z,0
2018-02-03T01:49:55.607Z,0
2018-02-03T01:50:55.340Z,0
2018-02-03T01:51:55.339Z,0
2018-02-03T01:52:55.077Z,0
2018-02-03T01:53:55.062Z,0
2018-02-03T01:54:55.064Z,0
2018-02-03T01:55:55.301Z,0
2018-02-03T01:56:55.041Z,0
2018-02-03T01:57:55.275Z,0
2018-02-03T01:58:55.531Z,0
2018-02-03T01:59:55.518Z,0
2018-02-03T02:00:55.508Z,0
2018-02-03T02:01:55.257Z,0
2018-02-03T02:02:54.978Z,0
2018-02-03T02:03:55.491Z,0
2018-02-03T02:04:55.472Z,0
2018-02-03T02:05:54.969Z,0
2018-02-03T02:06:54.954Z,0
2018-02-03T02:07:55.226Z,0
2018-02-03T02:08:55.441Z,0
2018-02-03T02:09:54.664Z,0
2018-02-03T02:10:55.173Z,0
2018-02-03T02:11:55.477Z,0
2018-02-03T02:12:55.137Z,0
2018-02-03T02:13:55.451Z,0
2018-02-03T02:14:55.385Z,0
2018-02-03T02:15:55.370Z,0
2018-02-03T02:16:54.863Z,0
2018-02-03T02:17:55.100Z,0
2018-02-03T02:18:54.867Z,0
2018-02-03T02:19:55.336Z,0
2018-02-03T02:20:55.067Z,0
2018-02-03T02:21:54.829Z,0
2018-02-03T02:22:54.552Z,0
2018-02-03T02:23:55.293Z,0
2018-02-03T02:24:55.037Z,0
2018-02-03T02:25:54.781Z,0
2018-02-03T02:26:55.025Z,0
2018-02-03T02:27:54.998Z,0
2018-02-03T02:28:55.245Z,0
2018-02-03T02:29:54.747Z,0
2018-02-03T02:30:54.982Z,0
2018-02-03T02:31:54.971Z,0
2018-02-03T02:32:54.713Z,0
2018-02-03T02:33:55.198Z,0
2018-02-03T02:34:54.944Z,0
2018-02-03T02:35:54.700Z,0
2018-02-03T02:36:54.931Z,0
2018-02-03T02:37:55.151Z,0
2018-02-03T02:38:54.398Z,0
2018-02-03T02:39:55.145Z,0
2018-02-03T02:40:54.904Z,0
2018-02-03T02:41:55.185Z,0
2018-02-03T02:42:54.625Z,0
2018-02-03T02:43:55.108Z,0
2018-02-03T02:44:54.845Z,0
2018-02-03T02:45:54.840Z,0
2018-02-03T02:46:55.084Z,0
2018-02-03T02:47:55.068Z,0
2018-02-03T02:48:54.802Z,0
2018-02-03T02:49:55.051Z,0
2018-02-03T02:50:54.798Z,0
2018-02-03T02:51:54.780Z,0
2018-02-03T02:52:55.006Z,0
2018-02-03T02:53:54.804Z,0
2018-02-03T02:54:54.740Z,0
2018-02-03T02:55:54.732Z,0
2018-02-03T02:56:54.724Z,0
2018-02-03T02:57:54.217Z,0
2018-02-03T02:58:54.448Z,0
2018-02-03T02:59:55.795Z,0
2018-02-03T03:00:54.179Z,0
2018-02-03T03:01:54.684Z,0
2018-02-03T03:02:54.166Z,0
2018-02-03T03:03:54.654Z,0
2018-02-03T03:04:54.653Z,0
2018-02-03T03:05:54.658Z,0
2018-02-03T03:06:54.645Z,0
2018-02-03T03:07:54.618Z,0
2018-02-03T03:08:54.892Z,0
2018-02-03T03:09:54.349Z,0
2018-02-03T03:10:54.592Z,0
2018-02-03T03:11:54.370Z,0
2018-02-03T03:12:54.315Z,0
2018-02-03T03:13:54.312Z,0
2018-02-03T03:14:54.807Z,0
2018-02-03T03:15:54.549Z,0
2018-02-03T03:16:54.787Z,0
2018-02-03T03:17:54.535Z,0
2018-02-03T03:18:54.532Z,0
2018-02-03T03:19:54.755Z,0
2018-02-03T03:20:54.240Z,0
2018-02-03T03:21:54.742Z,0
2018-02-03T03:22:54.233Z,0
2018-02-03T03:23:54.213Z,0
2018-02-03T03:24:54.457Z,0
2018-02-03T03:25:54.441Z,0
2018-02-03T03:26:54.212Z,0
2018-02-03T03:27:54.442Z,0
2018-02-03T03:28:54.426Z,0
2018-02-03T03:29:56.757Z,0
2018-02-03T03:30:54.658Z,0
2018-02-03T03:31:54.397Z,0
2018-02-03T03:32:54.140Z,0
2018-02-03T03:33:54.374Z,0
2018-02-03T03:34:54.368Z,0
2018-02-03T03:35:54.366Z,0
2018-02-03T03:36:54.099Z,0
2018-02-03T03:37:54.080Z,0
2018-02-03T03:38:54.080Z,0
2018-02-03T03:39:54.061Z,0
2018-02-03T03:40:54.328Z,0
2018-02-03T03:41:54.045Z,0
2018-02-03T03:42:54.292Z,0
2018-02-03T03:43:54.279Z,0
2018-02-03T03:44:54.271Z,0
2018-02-03T03:45:54.019Z,0
2018-02-03T03:46:54.530Z,0
2018-02-03T03:47:54.262Z,0
2018-02-03T03:48:54.512Z,0
2018-02-03T03:49:54.477Z,0
2018-02-03T03:50:54.469Z,0
2018-02-03T03:51:54.478Z,0
2018-02-03T03:52:54.213Z,0
2018-02-03T03:53:54.190Z,0
2018-02-03T03:54:54.176Z,0
2018-02-03T03:55:54.423Z,0
2018-02-03T03:56:53.906Z,0
2018-02-03T03:57:54.401Z,0
2018-02-03T03:58:54.406Z,0
2018-02-03T03:59:54.396Z,0
2018-02-03T04:00:54.126Z,0
2018-02-03T04:01:53.875Z,0
2018-02-03T04:02:53.855Z,0
2018-02-03T04:03:53.596Z,0
2018-02-03T04:04:54.340Z,0
2018-02-03T04:05:54.341Z,0
2018-02-03T04:06:54.329Z,0
2018-02-03T04:07:53.808Z,0
2018-02-03T04:08:53.803Z,0
2018-02-03T04:09:53.803Z,0
2018-02-03T04:10:54.055Z,0
2018-02-03T04:11:54.281Z,0
2018-02-03T04:12:53.515Z,0
2018-02-03T04:13:53.763Z,0
2018-02-03T04:14:53.765Z,0
2018-02-03T04:15:53.746Z,0
2018-02-03T04:16:53.980Z,0
2018-02-03T04:17:53.721Z,0
2018-02-03T04:18:53.718Z,0
2018-02-03T04:19:53.964Z,0
2018-02-03T04:20:54.207Z,0
2018-02-03T04:21:54.187Z,0
2018-02-03T04:22:54.193Z,0
2018-02-03T04:23:53.934Z,0
2018-02-03T04:24:53.911Z,0
2018-02-03T04:25:54.216Z,0
2018-02-03T04:26:54.151Z,0
2018-02-03T04:27:53.886Z,0
2018-02-03T04:28:53.876Z,0
2018-02-03T04:29:54.118Z,0
2018-02-03T04:30:57.621Z,0
2018-02-03T04:31:53.846Z,0
2018-02-03T04:32:53.585Z,0
2018-02-03T04:33:53.573Z,0
2018-02-03T04:34:53.579Z,0
2018-02-03T04:35:53.815Z,0
2018-02-03T04:36:53.547Z,0
2018-02-03T04:37:53.790Z,0
2018-02-03T04:38:53.789Z,0
2018-02-03T04:39:54.029Z,0
2018-02-03T04:40:53.779Z,0
2018-02-03T04:41:53.763Z,0
2018-02-03T04:42:53.500Z,0
2018-02-03T04:43:53.763Z,0
2018-02-03T04:44:53.487Z,0
2018-02-03T04:45:53.732Z,0
2018-02-03T04:46:53.708Z,0
2018-02-03T04:47:53.701Z,0
2018-02-03T04:48:53.944Z,0
2018-02-03T04:49:53.181Z,0
2018-02-03T04:50:53.676Z,0
2018-02-03T04:51:53.924Z,0
2018-02-03T04:52:53.918Z,0
2018-02-03T04:53:53.653Z,0
2018-02-03T04:54:53.921Z,0
2018-02-03T04:55:53.124Z,0
2018-02-03T04:56:53.372Z,0
2018-02-03T04:57:53.373Z,0
2018-02-03T04:58:53.606Z,0
2018-02-03T04:59:53.596Z,0
2018-02-03T05:00:53.842Z,0
2018-02-03T05:01:53.577Z,0
2018-02-03T05:02:53.569Z,0
2018-02-03T05:03:53.317Z,0
2018-02-03T05:04:53.544Z,0
2018-02-03T05:05:53.297Z,0
2018-02-03T05:06:53.040Z,0
2018-02-03T05:07:53.777Z,0
2018-02-03T05:08:53.774Z,0
2018-02-03T05:09:53.510Z,0
2018-02-03T05:10:53.532Z,0
2018-02-03T05:11:53.738Z,0
2018-02-03T05:12:53.491Z,0
2018-02-03T05:13:53.467Z,0
2018-02-03T05:14:53.728Z,0
2018-02-03T05:15:53.196Z,0
2018-02-03T05:16:54.328Z,0
2018-02-03T05:17:53.182Z,0
2018-02-03T05:18:53.418Z,0
2018-02-03T05:19:53.410Z,0
2018-02-03T05:20:53.202Z,0
2018-02-03T05:21:53.670Z,0
2018-02-03T05:22:53.393Z,0
2018-02-03T05:23:53.379Z,0
2018-02-03T05:24:53.382Z,0
2018-02-03T05:25:53.393Z,0
2018-02-03T05:26:53.602Z,0
2018-02-03T05:27:53.097Z,0
2018-02-03T05:28:53.336Z,0
2018-02-03T05:29:53.074Z,0
2018-02-03T05:30:53.067Z,0
2018-02-03T05:31:53.870Z,0
2018-02-03T05:32:53.301Z,0
2018-02-03T05:33:53.036Z,0
2018-02-03T05:34:53.032Z,0
2018-02-03T05:35:52.776Z,0
2018-02-03T05:36:53.259Z,0
2018-02-03T05:37:53.010Z,0
2018-02-03T05:38:53.303Z,0
2018-02-03T05:39:52.981Z,0
2018-02-03T05:40:52.726Z,0
2018-02-03T05:41:53.215Z,0
2018-02-03T05:42:52.957Z,0
2018-02-03T05:43:52.942Z,0
2018-02-03T05:44:53.447Z,0
2018-02-03T05:45:53.185Z,0
2018-02-03T05:46:53.179Z,0
2018-02-03T05:47:53.419Z,0
2018-02-03T05:48:53.411Z,0
2018-02-03T05:49:53.161Z,0
2018-02-03T05:50:53.163Z,0
2018-02-03T05:51:52.663Z,0
2018-02-03T05:52:52.894Z,0
2018-02-03T05:53:52.901Z,0
2018-02-03T05:54:53.359Z,0
2018-02-03T05:55:53.094Z,0
2018-02-03T05:56:52.837Z,0
2018-02-03T05:57:53.071Z,0
2018-02-03T05:58:53.086Z,0
2018-02-03T05:59:52.814Z,0
2018-02-03T06:00:53.306Z,0
2018-02-03T06:01:53.600Z,0
2018-02-03T06:02:52.788Z,0
2018-02-03T06:03:53.031Z,0
2018-02-03T06:04:53.294Z,0
2018-02-03T06:05:52.765Z,0
2018-02-03T06:06:53.051Z,0
2018-02-03T06:07:52.503Z,0
2018-02-03T06:08:52.739Z,0
2018-02-03T06:09:52.974Z,0
2018-02-03T06:10:53.228Z,0
2018-02-03T06:11:52.712Z,0
2018-02-03T06:12:53.216Z,0
2018-02-03T06:13:52.688Z,0
2018-02-03T06:23:36.257Z,4
2018-02-03T06:24:36.241Z,4
2018-02-03T06:25:36.739Z,4
2018-02-03T06:26:36.716Z,0
2018-02-03T06:27:36.219Z,4
2018-02-03T06:28:36.457Z,8
2018-02-03T06:29:36.695Z,4
2018-02-03T06:30:36.423Z,4
2018-02-03T06:31:36.179Z,8
2018-02-03T06:32:36.653Z,8
2018-02-03T06:33:36.642Z,12
2018-02-03T06:34:36.640Z,16
2018-02-03T06:35:36.465Z,20
2018-02-03T06:36:36.142Z,20
2018-02-03T06:37:36.357Z,24
2018-02-03T06:38:39.599Z,28
2018-02-03T06:39:36.585Z,32
2018-02-03T06:40:36.573Z,40
2018-02-03T06:41:36.328Z,48
2018-02-03T06:42:36.305Z,52
2018-02-03T06:43:36.042Z,56
2018-02-03T06:44:36.300Z,64
2018-02-03T06:45:36.271Z,72
2018-02-03T06:46:36.523Z,80
2018-02-03T06:47:36.507Z,88
2018-02-03T06:48:36.255Z,96
2018-02-03T06:49:36.308Z,108
2018-02-03T06:50:36.251Z,116
2018-02-03T06:51:35.966Z,128
2018-02-03T06:52:35.952Z,136
2018-02-03T06:53:37.013Z,152
2018-02-03T06:54:36.443Z,164
2018-02-03T06:55:36.193Z,172
2018-02-03T06:56:35.672Z,184
2018-02-03T06:57:36.158Z,196
2018-02-03T06:58:36.150Z,208
2018-02-03T06:59:35.891Z,220
2018-02-03T07:00:36.407Z,236
2018-02-03T07:01:36.121Z,252
2018-02-03T07:02:36.384Z,272
2018-02-03T07:03:36.099Z,292
2018-02-03T07:04:36.096Z,316
2018-02-03T07:05:35.846Z,336
2018-02-03T07:06:36.261Z,356
2018-02-03T07:07:35.817Z,384
2018-02-03T07:08:36.756Z,408
2018-02-03T07:09:36.414Z,432
2018-02-03T07:10:36.055Z,456
2018-02-03T07:11:36.336Z,484
2018-02-03T07:12:35.785Z,508
2018-02-03T07:13:36.018Z,524
2018-02-03T07:14:36.266Z,540
2018-02-03T07:15:35.992Z,556
2018-02-03T07:16:35.984Z,580
2018-02-03T07:17:35.978Z,608
2018-02-03T07:18:36.268Z,628
2018-02-03T07:19:36.208Z,656
2018-02-03T07:20:35.948Z,680
2018-02-03T07:21:36.186Z,700
2018-02-03T07:22:35.684Z,716
2018-02-03T07:23:35.914Z,732
2018-02-03T07:24:38.312Z,756
2018-02-03T07:25:35.650Z,776
2018-02-03T07:26:35.880Z,796
2018-02-03T07:27:36.132Z,816
2018-02-03T07:28:35.877Z,828
2018-02-03T07:29:36.682Z,840
2018-02-03T07:30:35.685Z,860
2018-02-03T07:31:35.842Z,872
2018-02-03T07:32:35.621Z,888
2018-02-03T07:33:35.833Z,904
2018-02-03T07:34:36.075Z,924
2018-02-03T07:35:35.565Z,944
2018-02-03T07:36:36.064Z,968
2018-02-03T07:37:36.054Z,988
2018-02-03T07:38:35.529Z,1004
2018-02-03T07:39:37.140Z,1020
2018-02-03T07:40:35.756Z,1036
2018-02-03T07:41:35.763Z,1052
2018-02-03T07:42:35.507Z,1060
2018-02-03T07:43:35.748Z,1076
2018-02-03T07:44:36.010Z,1080
2018-02-03T07:45:35.718Z,1084
2018-02-03T07:46:35.456Z,1088
2018-02-03T07:47:35.959Z,1108
2018-02-03T07:48:35.944Z,1128
2018-02-03T07:49:35.445Z,1144
2018-02-03T07:50:35.676Z,1164
2018-02-03T07:51:35.415Z,1184
2018-02-03T07:52:35.919Z,1208
2018-02-03T07:53:35.649Z,1232
2018-02-03T07:54:38.100Z,1252
2018-02-03T07:55:35.891Z,1276
2018-02-03T07:56:35.620Z,1292
2018-02-03T07:57:35.863Z,1304
2018-02-03T07:58:35.603Z,1312
2018-02-03T07:59:35.854Z,1308
2018-02-03T08:00:35.593Z,1296
2018-02-03T08:01:35.585Z,1276
2018-02-03T08:02:35.597Z,1248
2018-02-03T08:03:35.582Z,1224
2018-02-03T08:04:35.822Z,1204
2018-02-03T08:05:35.558Z,1196
2018-02-03T08:06:35.549Z,1204
2018-02-03T08:07:35.794Z,1212
2018-02-03T08:08:35.777Z,1220
2018-02-03T08:09:35.522Z,1228
2018-02-03T08:10:35.758Z,1236
2018-02-03T08:11:35.509Z,1244
2018-02-03T08:12:35.249Z,1244
2018-02-03T08:13:35.750Z,1248
2018-02-03T08:14:35.222Z,1256
2018-02-03T08:15:35.487Z,1272
2018-02-03T08:16:35.712Z,1288
2018-02-03T08:17:35.707Z,1304
2018-02-03T08:18:35.712Z,1336
2018-02-03T08:19:35.681Z,1356
2018-02-03T08:20:35.680Z,1376
2018-02-03T08:21:35.677Z,1392
2018-02-03T08:22:35.433Z,1424
2018-02-03T08:23:35.151Z,1472
2018-02-03T08:24:35.139Z,1528
2018-02-03T08:25:35.634Z,1572
2018-02-03T08:26:35.138Z,1612
2018-02-03T08:27:35.618Z,1640
2018-02-03T08:28:35.357Z,1676
2018-02-03T08:29:35.354Z,1708
2018-02-03T08:30:35.392Z,1740
2018-02-03T08:31:35.603Z,1788
2018-02-03T08:32:35.322Z,1848
2018-02-03T08:33:35.319Z,1924
2018-02-03T08:34:35.313Z,2000
2018-02-03T08:35:34.808Z,2068
2018-02-03T08:36:35.588Z,2136
2018-02-03T08:37:35.419Z,2200
2018-02-03T08:38:35.030Z,2268
2018-02-03T08:39:35.273Z,2328
2018-02-03T08:40:37.317Z,2384
2018-02-03T08:41:35.558Z,2436
2018-02-03T08:42:34.999Z,2496
2018-02-03T08:43:34.997Z,2548
2018-02-03T08:44:35.232Z,2608
2018-02-03T08:45:35.231Z,2664
2018-02-03T08:46:34.962Z,2720
2018-02-03T08:47:34.960Z,2764
2018-02-03T08:48:34.949Z,2808
2018-02-03T08:49:34.943Z,2852
2018-02-03T08:50:34.982Z,2896
2018-02-03T08:51:34.933Z,2928
2018-02-03T08:52:35.177Z,2960
2018-02-03T08:53:34.921Z,2984
2018-02-03T08:54:35.410Z,3008
2018-02-03T08:55:35.408Z,3036
2018-02-03T08:56:35.405Z,3064
2018-02-03T08:57:35.185Z,3104
2018-02-03T08:58:35.379Z,3136
2018-02-03T08:59:34.611Z,3164
2018-02-03T09:00:35.412Z,3176
2018-02-03T09:01:34.850Z,3180
2018-02-03T09:02:35.117Z,3176
2018-02-03T09:03:34.845Z,3172
2018-02-03T09:04:35.344Z,3180
2018-02-03T09:05:35.872Z,3188
2018-02-03T09:06:35.315Z,3196
2018-02-03T09:07:35.060Z,3204
2018-02-03T09:08:35.313Z,3228
2018-02-03T09:09:34.811Z,3284
2018-02-03T09:10:39.539Z,3340
2018-02-03T09:11:35.027Z,3404
2018-02-03T09:12:35.336Z,3464
2018-02-03T09:13:35.259Z,3540
2018-02-03T09:14:35.016Z,3616
2018-02-03T09:15:35.002Z,3696
2018-02-03T09:16:35.303Z,3768
2018-02-03T09:17:34.485Z,3824
2018-02-03T09:18:35.220Z,3892
2018-02-03T09:19:35.223Z,3964
2018-02-03T09:20:34.714Z,4032
2018-02-03T09:21:35.199Z,4096
2018-02-03T09:22:34.442Z,4152
2018-02-03T09:23:35.187Z,4208
2018-02-03T09:24:34.687Z,4264
2018-02-03T09:25:34.991Z,4316
2018-02-03T09:26:36.263Z,4340
2018-02-03T09:27:34.689Z,4364
2018-02-03T09:28:34.682Z,4384
2018-02-03T09:29:35.149Z,4392
2018-02-03T09:30:34.884Z,4380
2018-02-03T09:31:34.880Z,4340
2018-02-03T09:32:35.127Z,4304
2018-02-03T09:33:34.610Z,4300
2018-02-03T09:34:35.106Z,4324
2018-02-03T09:35:34.854Z,4372
2018-02-03T09:36:34.586Z,4412
2018-02-03T09:37:34.834Z,4476
2018-02-03T09:38:34.327Z,4552
2018-02-03T09:39:34.825Z,4628
2018-02-03T09:40:34.567Z,4712
2018-02-03T09:41:35.101Z,4792
2018-02-03T09:42:34.547Z,4868
2018-02-03T09:43:35.040Z,4952
2018-02-03T09:44:35.030Z,5008
2018-02-03T09:45:35.021Z,5040
2018-02-03T09:46:35.017Z,5044
2018-02-03T09:47:35.010Z,5040
2018-02-03T09:48:35.008Z,5032
2018-02-03T09:49:34.757Z,5048
2018-02-03T09:50:34.743Z,5060
2018-02-03T09:51:34.738Z,5056
2018-02-03T09:52:34.486Z,5048
2018-02-03T09:53:34.723Z,5024
2018-02-03T09:54:34.959Z,5008
2018-02-03T09:55:34.958Z,4996
2018-02-03T09:56:36.376Z,4996
2018-02-03T09:57:34.951Z,4972
2018-02-03T09:58:34.939Z,4904
2018-02-03T09:59:34.423Z,4816
2018-02-03T10:00:34.973Z,4728
2018-02-03T10:01:34.913Z,4652
2018-02-03T10:02:34.924Z,4608
2018-02-03T10:03:34.665Z,4664
2018-02-03T10:04:34.665Z,4784
2018-02-03T10:05:34.381Z,4900
2018-02-03T10:06:34.380Z,4964
2018-02-03T10:07:34.128Z,5064
2018-02-03T10:08:34.621Z,5184
2018-02-03T10:09:34.625Z,5308
2018-02-03T10:10:34.861Z,5412
2018-02-03T10:11:35.241Z,5472
2018-02-03T10:12:34.833Z,5508
2018-02-03T10:13:34.332Z,5516
2018-02-03T10:14:34.828Z,5468
2018-02-03T10:15:34.854Z,5388
2018-02-03T10:16:34.309Z,5260
2018-02-03T10:17:34.802Z,5060
2018-02-03T10:18:34.036Z,4896
2018-02-03T10:19:34.805Z,4712
2018-02-03T10:20:34.778Z,4640
2018-02-03T10:21:34.517Z,4604
2018-02-03T10:22:34.264Z,4592
2018-02-03T10:53:28.052Z,5408
2018-02-03T10:54:26.044Z,5384
2018-02-03T10:55:26.015Z,5368
2018-02-03T10:56:26.010Z,5380
2018-02-03T10:57:25.994Z,5336
2018-02-03T10:58:25.732Z,5352
2018-02-03T10:59:25.479Z,5412
2018-02-03T11:00:25.982Z,5476
2018-02-03T11:01:25.702Z,5504
2018-02-03T11:02:25.716Z,5496
2018-02-03T11:03:25.944Z,5480
2018-02-03T11:04:25.937Z,5480
2018-02-03T11:05:25.681Z,5516
2018-02-03T11:06:25.933Z,5520
2018-02-03T11:07:25.913Z,5568
2018-02-03T11:08:26.157Z,5628
2018-02-03T11:09:25.641Z,5672
2018-02-03T11:10:25.948Z,5608
2018-02-03T11:11:25.940Z,5528
2018-02-03T11:12:26.127Z,5452
2018-02-03T11:13:25.880Z,5432
2018-02-03T11:14:25.609Z,5420
2018-02-03T11:15:25.934Z,5420
2018-02-03T11:16:25.835Z,5384
2018-02-03T11:17:25.581Z,5396
2018-02-03T11:18:25.319Z,5384
2018-02-03T11:19:26.066Z,5344
2018-02-03T11:20:25.822Z,5312
2018-02-03T11:21:25.805Z,5344
2018-02-03T11:22:25.791Z,5308
2018-02-03T11:23:25.786Z,5268
2018-02-03T11:24:26.025Z,5320
2018-02-03T11:25:25.818Z,5452
2018-02-03T11:26:25.776Z,5560
2018-02-03T11:27:25.766Z,5624
2018-02-03T11:28:25.531Z,5564
2018-02-03T11:29:26.007Z,5460
2018-02-03T11:30:25.515Z,5440
2018-02-03T11:31:25.734Z,5540
2018-02-03T11:32:25.978Z,5536
2018-02-03T11:33:25.723Z,5548
2018-02-03T11:34:25.460Z,5516
2018-02-03T11:35:25.447Z,5492
2018-02-03T11:36:25.954Z,5456
2018-02-03T11:37:26.009Z,5352
2018-02-03T11:38:25.431Z,5256
2018-02-03T11:39:25.939Z,5180
2018-02-03T11:40:25.443Z,5140
2018-02-03T11:41:25.922Z,5144
2018-02-03T11:42:25.927Z,5200
2018-02-03T11:43:25.650Z,5192
2018-02-03T11:44:25.655Z,5160
2018-02-03T11:45:25.493Z,5136
2018-02-03T11:46:25.627Z,5056
2018-02-03T11:47:25.874Z,4948
2018-02-03T11:48:25.619Z,4844
2018-02-03T11:49:25.365Z,4708
2018-02-03T11:50:25.900Z,4576
2018-02-03T11:51:25.103Z,4448
2018-02-03T11:52:25.091Z,4324
2018-02-03T11:53:27.795Z,4188
2018-02-03T11:54:25.576Z,4124
2018-02-03T11:55:25.839Z,4172
2018-02-03T11:56:25.824Z,4400
2018-02-03T11:57:25.311Z,4612
2018-02-03T11:58:25.808Z,4700
2018-02-03T11:59:25.558Z,4744
2018-02-03T12:00:25.878Z,4756
2018-02-03T12:01:25.285Z,4800
2018-02-03T12:02:25.527Z,4880
2018-02-03T12:03:25.269Z,4972
2018-02-03T12:04:25.264Z,4988
2018-02-03T12:05:25.324Z,4880
2018-02-03T12:06:25.253Z,4740
2018-02-03T12:07:25.254Z,4564
2018-02-03T12:08:25.749Z,4348
2018-02-03T12:09:25.487Z,4240
2018-02-03T12:10:25.483Z,4260
2018-02-03T12:11:24.974Z,4364
2018-02-03T12:12:25.484Z,4504
2018-02-03T12:13:24.961Z,4612
2018-02-03T12:14:25.204Z,4512
2018-02-03T12:15:25.573Z,4364
2018-02-03T12:16:25.697Z,4292
2018-02-03T12:17:25.184Z,4228
2018-02-03T12:18:25.177Z,4272
2018-02-03T12:19:25.424Z,4368
2018-02-03T12:20:25.492Z,4504
2018-02-03T12:21:25.667Z,4712
2018-02-03T12:22:25.160Z,4872
2018-02-03T12:23:26.410Z,5020
2018-02-03T12:24:25.402Z,5164
2018-02-03T12:25:24.881Z,5348
2018-02-03T12:26:25.389Z,5660
2018-02-03T12:27:25.626Z,5484
2018-02-03T12:28:25.372Z,5344
2018-02-03T12:29:25.121Z,5196
2018-02-03T12:30:25.653Z,5020
2018-02-03T12:31:25.349Z,4868
2018-02-03T12:32:25.595Z,4884
2018-02-03T12:33:25.111Z,4852
2018-02-03T12:34:25.326Z,4840
2018-02-03T12:35:25.085Z,4868
2018-02-03T12:36:25.576Z,4844
2018-02-03T12:37:25.559Z,4744
2018-02-03T12:38:25.559Z,4652
2018-02-03T12:39:24.805Z,4644
2018-02-03T12:40:25.425Z,4792
2018-02-03T12:41:24.830Z,4968
2018-02-03T12:42:25.531Z,5148
2018-02-03T12:43:25.533Z,5240
2018-02-03T12:44:25.034Z,5308
2018-02-03T12:45:25.258Z,5352
2018-02-03T12:46:25.006Z,5368
2018-02-03T12:47:25.246Z,5356
2018-02-03T12:48:25.247Z,5316
2018-02-03T12:49:25.229Z,5248
2018-02-03T12:50:25.233Z,5164
2018-02-03T12:51:25.467Z,5064
2018-02-03T12:52:24.956Z,4960
2018-02-03T12:53:25.451Z,4844
2018-02-03T12:54:25.498Z,4780
2018-02-03T12:55:25.494Z,4708
2018-02-03T12:56:24.988Z,4632
2018-02-03T12:57:25.174Z,4552
2018-02-03T12:58:25.167Z,4492
2018-02-03T12:59:25.161Z,4428
2018-02-03T13:00:24.903Z,4388
2018-02-03T13:01:25.412Z,4348
2018-02-03T13:02:25.392Z,4324
2018-02-03T13:03:25.388Z,4292
2018-02-03T13:04:24.621Z,4272
2018-02-03T13:05:25.219Z,4276
2018-02-03T13:06:24.854Z,4280
2018-02-03T13:07:25.113Z,4284
2018-02-03T13:08:25.095Z,4284
2018-02-03T13:09:25.146Z,4292
2018-02-03T13:10:24.837Z,4272
2018-02-03T13:11:25.081Z,4256
2018-02-03T13:12:24.817Z,4284
2018-02-03T13:13:25.077Z,4312
2018-02-03T13:14:25.079Z,4328
2018-02-03T13:15:24.796Z,4340
2018-02-03T13:16:25.049Z,4352
2018-02-03T13:17:25.064Z,4376
2018-02-03T13:18:24.772Z,4388
2018-02-03T13:19:25.023Z,4416
2018-02-03T13:20:24.798Z,4440
2018-02-03T13:21:25.277Z,4432
2018-02-03T13:22:24.987Z,4404
2018-02-03T13:23:24.988Z,4396
2018-02-03T13:24:25.432Z,4408
2018-02-03T13:25:25.053Z,4428
2018-02-03T13:26:25.217Z,4448
2018-02-03T13:27:24.708Z,4476
2018-02-03T13:28:24.700Z,4520
2018-02-03T13:29:24.952Z,4564
2018-02-03T13:30:25.012Z,4596
2018-02-03T13:31:24.424Z,4612
2018-02-03T13:32:24.688Z,4632
2018-02-03T13:33:24.700Z,4624
2018-02-03T13:34:24.663Z,4624
2018-02-03T13:35:25.165Z,4628
2018-02-03T13:36:24.900Z,4624
2018-02-03T13:37:24.882Z,4612
2018-02-03T13:38:24.880Z,4588
2018-02-03T13:39:24.369Z,4552
2018-02-03T13:40:24.630Z,4476
2018-02-03T13:41:25.122Z,4380
2018-02-03T13:42:25.107Z,4268
2018-02-03T13:43:24.897Z,4220
2018-02-03T13:44:25.098Z,4160
2018-02-03T13:45:24.833Z,4152
2018-02-03T13:46:24.823Z,4156
2018-02-03T13:47:24.313Z,4144
2018-02-03T13:48:24.558Z,4104
2018-02-03T13:49:24.809Z,4068
2018-02-03T13:50:24.884Z,4040
2018-02-03T13:51:24.542Z,4008
2018-02-03T13:52:25.031Z,3988
2018-02-03T13:53:25.024Z,3992
2018-02-03T13:54:25.029Z,3952
2018-02-03T13:55:24.582Z,3916
2018-02-03T13:56:24.511Z,3876
2018-02-03T13:57:24.764Z,3820
2018-02-03T13:58:24.783Z,3760
2018-02-03T13:59:24.992Z,3684
2018-02-03T14:00:24.475Z,3648
2018-02-03T14:01:24.468Z,3628
2018-02-03T14:02:24.721Z,3604
2018-02-03T14:03:24.214Z,3564
2018-02-03T14:04:24.199Z,3480
2018-02-03T14:05:24.447Z,3400
2018-02-03T14:06:24.692Z,3292
2018-02-03T14:07:24.676Z,3232
2018-02-03T14:08:24.421Z,3188
2018-02-03T14:09:24.668Z,3156
2018-02-03T14:10:24.809Z,3164
2018-02-03T14:11:24.393Z,3160
2018-02-03T14:12:24.393Z,3164
2018-02-03T14:13:24.631Z,3196
2018-02-03T14:14:24.379Z,3236
2018-02-03T14:15:24.878Z,3280
2018-02-03T14:16:24.868Z,3292
2018-02-03T14:17:24.882Z,3296
2018-02-03T14:18:24.354Z,3272
2018-02-03T14:19:24.849Z,3276
2018-02-03T14:20:24.604Z,3236
2018-02-03T14:21:24.579Z,3216
2018-02-03T14:22:24.317Z,3216
2018-02-03T14:23:24.064Z,3188
2018-02-03T14:24:24.305Z,3172
2018-02-03T14:25:28.398Z,3136
2018-02-03T14:26:24.797Z,3116
2018-02-03T14:27:24.286Z,3096
2018-02-03T14:28:24.526Z,3088
2018-02-03T14:29:24.022Z,3056
2018-02-03T14:30:24.283Z,3020
2018-02-03T14:31:24.761Z,2960
2018-02-03T14:32:24.548Z,2892
2018-02-03T14:33:24.751Z,2796
2018-02-03T14:34:24.481Z,2700
2018-02-03T14:35:24.525Z,2624
2018-02-03T14:36:24.745Z,2580
2018-02-03T14:37:24.222Z,2556
2018-02-03T14:38:24.711Z,2580